createdAt,value
2018-07-27T00:03:53.401Z,21.5
2018-07-27T00:09:29.025Z,21.5
2018-07-27T00:14:54.818Z,21.6
2018-07-27T00:20:24.630Z,21.6
2018-07-27T00:25:55.467Z,21.6
2018-07-27T00:25:56.338Z,21.6
2018-07-27T00:31:26.332Z,21.6
2018-07-27T00:36:56.512Z,21.5
2018-07-27T00:42:27.037Z,21.4
2018-07-27T00:47:56.853Z,21.4
2018-07-27T00:53:27.554Z,21.4
2018-07-27T00:58:58.383Z,21.4
2018-07-27T01:04:28.417Z,21.3
2018-07-27T01:09:59.015Z,21.2
2018-07-27T01:15:34.110Z,21.2
2018-07-27T01:20:59.015Z,21.2
2018-07-27T01:26:28.671Z,21.2
2018-07-27T01:32:03.161Z,21.3
2018-07-27T01:37:27.905Z,21.3
2018-07-27T01:42:57.947Z,21.3
2018-07-27T01:48:28.569Z,21.3
2018-07-27T01:53:59.542Z,21.2
2018-07-27T01:59:34.064Z,21.2
2018-07-27T02:05:00.147Z,21.2
2018-07-27T02:10:29.627Z,21.1
2018-07-27T02:15:59.357Z,21.1
2018-07-27T02:21:30.365Z,21
2018-07-27T02:27:05.381Z,20.9
2018-07-27T02:32:30.608Z,20.8
2018-07-27T02:38:00.723Z,20.7
2018-07-27T02:43:30.212Z,20.7
2018-07-27T02:49:00.041Z,20.6
2018-07-27T02:54:29.590Z,20.6
2018-07-27T03:00:04.527Z,20.5
2018-07-27T03:05:28.960Z,20.5
2018-07-27T03:11:05.069Z,20.5
2018-07-27T03:16:29.455Z,20.5
2018-07-27T03:21:59.399Z,20.5
2018-07-27T03:27:34.905Z,20.4
2018-07-27T03:33:00.250Z,20.3
2018-07-27T03:38:35.392Z,20.3
2018-07-27T03:44:05.561Z,20.3
2018-07-27T03:49:31.206Z,20.3
2018-07-27T03:55:00.450Z,20.3
2018-07-27T04:00:30.253Z,20.3
2018-07-27T04:06:00.985Z,20.2
2018-07-27T04:11:36.713Z,20.2
2018-07-27T04:17:01.320Z,20.2
2018-07-27T04:22:37.210Z,20.2
2018-07-27T04:28:03.203Z,20.2
2018-07-27T04:33:37.285Z,20.2
2018-07-27T04:39:03.046Z,20.3
2018-07-27T04:44:38.727Z,20.3
2018-07-27T04:50:03.427Z,20.3
2018-07-27T04:55:39.380Z,20.4
2018-07-27T05:01:04.800Z,20.5
2018-07-27T05:06:34.594Z,20.5
2018-07-27T05:12:05.633Z,20.7
2018-07-27T05:17:40.547Z,20.8
2018-07-27T05:23:11.029Z,20.8
2018-07-27T05:28:40.559Z,20.9
2018-07-27T05:34:11.240Z,21
2018-07-27T05:39:40.974Z,21.1
2018-07-27T05:45:11.705Z,21.1
2018-07-27T05:50:42.779Z,21.2
2018-07-27T05:56:07.535Z,21.3
2018-07-27T06:01:37.045Z,21.4
2018-07-27T06:07:11.868Z,21.5
2018-07-27T06:12:36.916Z,21.6
2018-07-27T06:18:12.575Z,21.6
2018-07-27T06:23:37.363Z,21.7
2018-07-27T06:29:08.361Z,21.8
2018-07-27T06:34:43.021Z,21.9
2018-07-27T06:40:07.779Z,22
2018-07-27T06:45:37.656Z,22.1
2018-07-27T06:51:08.793Z,22.2
2018-07-27T06:56:38.407Z,22.3
2018-07-27T07:02:09.587Z,22.4
2018-07-27T07:07:40.641Z,22.5
2018-07-27T07:13:15.283Z,22.6
2018-07-27T07:18:41.095Z,22.7
2018-07-27T07:24:12.541Z,22.8
2018-07-27T07:29:41.917Z,22.8
2018-07-27T07:35:12.867Z,22.9
2018-07-27T07:40:49.113Z,23
2018-07-27T07:46:15.221Z,23
2018-07-27T07:51:46.229Z,23.1
2018-07-27T07:51:48.805Z,23.1
2018-07-27T07:57:15.918Z,23.2
2018-07-27T08:02:45.785Z,23.2
2018-07-27T08:08:15.849Z,23.3
2018-07-27T08:19:17.050Z,23.5
2018-07-27T08:24:47.848Z,23.5
2018-07-27T08:30:18.009Z,23.5
2018-07-27T08:35:53.926Z,23.6
2018-07-27T08:41:19.637Z,23.7
2018-07-27T08:41:23.994Z,23.7
2018-07-27T08:46:49.004Z,23.8
2018-07-27T08:52:19.293Z,23.9
2018-07-27T08:57:49.161Z,23.9
2018-07-27T09:03:20.508Z,23.9
2018-07-27T09:03:20.890Z,23.9
2018-07-27T09:08:50.380Z,24
2018-07-27T09:14:22.151Z,24.1
2018-07-27T09:19:51.556Z,24.2
2018-07-27T09:25:23.010Z,24.3
2018-07-27T09:30:52.892Z,24.3
2018-07-27T09:36:23.078Z,24.4
2018-07-27T09:41:54.511Z,24.5
2018-07-27T09:47:25.402Z,24.5
2018-07-27T09:52:56.694Z,24.5
2018-07-27T09:58:27.888Z,24.5
2018-07-27T10:03:57.879Z,24.6
2018-07-27T10:09:27.933Z,24.7
2018-07-27T10:14:59.459Z,24.8
2018-07-27T10:20:29.270Z,24.8
2018-07-27T10:26:05.006Z,24.8
2018-07-27T10:31:30.786Z,24.9
2018-07-27T10:37:01.193Z,24.9
2018-07-27T10:42:37.228Z,25
2018-07-27T10:48:03.666Z,25
2018-07-27T10:53:33.606Z,25.1
2018-07-27T10:59:03.841Z,25.1
2018-07-27T11:04:39.280Z,25.1
2018-07-27T11:10:04.672Z,25.2
2018-07-27T11:15:40.632Z,25.3
2018-07-27T11:21:06.954Z,25.4
2018-07-27T11:26:37.431Z,25.4
2018-07-27T11:32:08.492Z,25.4
2018-07-27T11:37:43.965Z,25.5
2018-07-27T11:43:08.955Z,25.5
2018-07-27T11:48:40.561Z,25.6
2018-07-27T11:54:16.659Z,25.6
2018-07-27T11:59:43.153Z,25.6
2018-07-27T12:05:13.241Z,25.6
2018-07-27T12:10:48.858Z,25.7
2018-07-27T12:16:14.015Z,25.7
2018-07-27T12:21:45.747Z,25.8
2018-07-27T12:27:15.936Z,25.8
2018-07-27T12:32:46.924Z,25.9
2018-07-27T12:38:18.117Z,25.9
2018-07-27T12:43:49.352Z,25.9
2018-07-27T12:49:17.932Z,26
2018-07-27T12:54:53.385Z,26
2018-07-27T13:00:19.860Z,26.1
2018-07-27T13:05:49.988Z,26.1
2018-07-27T13:11:21.580Z,26.1
2018-07-27T13:16:57.689Z,26.2
2018-07-27T13:22:28.355Z,26.3
2018-07-27T13:27:54.568Z,26.4
2018-07-27T13:33:24.903Z,26.5
2018-07-27T13:38:55.431Z,26.5
2018-07-27T13:44:26.760Z,26.5
2018-07-27T13:50:03.215Z,26.5
2018-07-27T13:55:29.736Z,26.5
2018-07-27T14:01:00.087Z,26.5
2018-07-27T14:06:30.470Z,26.5
2018-07-27T14:12:00.927Z,26.5
2018-07-27T14:17:32.301Z,26.5
2018-07-27T14:23:03.905Z,26.5
2018-07-27T14:28:34.328Z,26.5
2018-07-27T14:34:05.585Z,26.5
2018-07-27T14:39:36.715Z,26.5
2018-07-27T14:45:11.726Z,26.4
2018-07-27T14:50:37.142Z,26.4
2018-07-27T14:56:07.636Z,26.5
2018-07-27T15:01:38.754Z,26.5
2018-07-27T15:07:09.168Z,26.5
2018-07-27T15:12:39.851Z,26.5
2018-07-27T15:18:11.047Z,26.6
2018-07-27T15:23:41.497Z,26.5
2018-07-27T15:29:12.932Z,26.6
2018-07-27T15:34:43.480Z,26.6
2018-07-27T15:40:20.182Z,26.6
2018-07-27T15:45:51.659Z,26.6
2018-07-27T15:51:16.937Z,26.6
2018-07-27T15:56:53.392Z,26.6
2018-07-27T16:02:18.829Z,26.6
2018-07-27T16:07:49.259Z,26.6
2018-07-27T16:13:20.553Z,26.6
2018-07-27T16:18:51.891Z,26.6
2018-07-27T16:18:54.995Z,26.6
2018-07-27T16:24:23.329Z,26.6
2018-07-27T16:29:59.783Z,26.7
2018-07-27T16:35:25.354Z,26.7
2018-07-27T16:40:55.675Z,26.6
2018-07-27T16:46:27.145Z,26.6
2018-07-27T16:52:02.638Z,26.6
2018-07-27T16:57:28.385Z,26.6
2018-07-27T17:02:58.465Z,26.5
2018-07-27T17:08:34.951Z,26.4
2018-07-27T17:14:01.929Z,26.3
2018-07-27T17:19:31.687Z,26.2
2018-07-27T17:25:03.872Z,26.1
2018-07-27T17:30:34.459Z,26
2018-07-27T17:36:04.848Z,25.9
2018-07-27T17:41:35.421Z,25.8
2018-07-27T17:47:05.785Z,25.7
2018-07-27T17:52:40.817Z,25.6
2018-07-27T17:58:06.134Z,25.4
2018-07-27T18:03:37.671Z,25.3
2018-07-27T18:09:08.659Z,25.3
2018-07-27T18:14:43.928Z,25.2
2018-07-27T18:20:10.494Z,25.1
2018-07-27T18:25:41.897Z,25
2018-07-27T18:31:14.500Z,24.9
2018-07-27T18:36:44.061Z,24.9
2018-07-27T18:42:15.256Z,24.8
2018-07-27T18:47:45.413Z,24.7
2018-07-27T18:53:16.472Z,24.6
2018-07-27T18:58:46.780Z,24.5
2018-07-27T19:04:21.920Z,24.4
2018-07-27T19:09:47.024Z,24.3
2018-07-27T19:15:23.299Z,24.2
2018-07-27T19:20:48.322Z,24.2
2018-07-27T19:26:18.433Z,24.1
2018-07-27T19:31:49.600Z,24
2018-07-27T19:37:20.675Z,23.9
2018-07-27T19:42:50.723Z,23.8
2018-07-27T19:48:21.035Z,23.7
2018-07-27T19:53:50.979Z,23.6
2018-07-27T19:59:20.961Z,23.5
2018-07-27T20:04:52.045Z,23.5
2018-07-27T20:10:27.104Z,23.4
2018-07-27T20:15:53.308Z,23.3
2018-07-27T20:21:23.126Z,23.3
2018-07-27T20:26:59.470Z,23.2
2018-07-27T20:32:25.107Z,23.2
2018-07-27T20:37:55.110Z,23.1
2018-07-27T20:43:25.202Z,23
2018-07-27T20:48:55.441Z,23
2018-07-27T20:54:30.119Z,22.9
2018-07-27T21:00:00.071Z,22.9
2018-07-27T21:05:24.999Z,22.8
2018-07-27T21:10:54.996Z,22.7
2018-07-27T21:16:30.996Z,22.7
2018-07-27T21:21:55.985Z,22.6
2018-07-27T21:27:27.341Z,22.6
2018-07-27T21:33:03.082Z,22.5
2018-07-27T21:38:27.782Z,22.5
2018-07-27T21:44:03.770Z,22.5
2018-07-27T21:49:34.875Z,22.4
2018-07-27T21:55:00.454Z,22.4
2018-07-27T22:00:30.514Z,22.3
2018-07-27T22:06:01.776Z,22.3
2018-07-27T22:11:32.178Z,22.2
2018-07-27T22:17:03.367Z,22.2
2018-07-27T22:22:33.178Z,22.1
2018-07-27T22:28:02.763Z,22.1
2018-07-27T22:33:33.596Z,22
2018-07-27T22:39:03.478Z,22
2018-07-27T22:44:34.334Z,22
2018-07-27T22:50:05.169Z,21.9
2018-07-27T22:55:40.053Z,21.9
2018-07-27T23:01:04.931Z,21.9
2018-07-27T23:06:34.735Z,21.9
2018-07-27T23:12:05.580Z,21.8
2018-07-27T23:17:35.486Z,21.8
2018-07-27T23:23:06.210Z,21.8
2018-07-27T23:28:36.042Z,21.7
2018-07-27T23:34:05.866Z,21.7
2018-07-27T23:39:41.687Z,21.6
2018-07-27T23:45:06.521Z,21.6
2018-07-27T23:50:37.678Z,21.6
2018-07-27T23:56:08.100Z,21.5
